Time;durP1;ratioP1;P1;durP2;ratioP2;P2;SDS_P1;SDS_P2;PMS_P1;PMS_P2;Temp;Humidity;BMP_temperature;BMP_pressure;BME280_temperature;BME280_humidity;BME280_pressure;Samples;Min_cycle;Max_cycle;Signal;HPM_P1;HPM_P2
2022/08/29 00:00:26;;;;;;;2.30;1.48;;;15.70;99.90;;;;;;2568060;23;20000;-74
2022/08/29 00:01:27;;;;;;;3.28;1.80;;;15.60;99.90;;;;;;2568834;23;20004;-73
2022/08/29 00:02:28;;;;;;;2.47;1.38;;;15.60;99.90;;;;;;2568767;23;20015;-73
2022/08/29 00:03:28;;;;;;;1.85;1.48;;;15.60;99.90;;;;;;2568470;23;20437;-73
2022/08/29 00:04:29;;;;;;;3.42;1.65;;;15.60;99.90;;;;;;2568447;23;20000;-73
2022/08/29 00:05:32;;;;;;;2.10;1.88;;;15.60;99.90;;;;;;2568661;23;20001;-73
2022/08/29 00:06:33;;;;;;;3.20;1.48;;;15.60;99.90;;;;;;2568356;23;19997;-73
2022/08/29 00:07:34;;;;;;;3.58;1.75;;;15.50;99.90;;;;;;2569060;23;19996;-73
2022/08/29 00:08:34;;;;;;;3.22;1.70;;;15.50;99.90;;;;;;2555493;23;20005;-73
2022/08/29 00:09:35;;;;;;;6.70;2.00;;;15.50;99.90;;;;;;2555608;23;20099;-73
2022/08/29 00:10:36;;;;;;;3.85;1.83;;;15.50;99.90;;;;;;2555337;23;20069;-73
2022/08/29 00:11:37;;;;;;;2.92;1.73;;;15.50;99.90;;;;;;2568655;23;20435;-74
2022/08/29 00:12:38;;;;;;;3.08;1.55;;;15.50;99.90;;;;;;2568522;23;20317;-73
2022/08/29 00:13:39;;;;;;;2.83;1.90;;;15.50;99.90;;;;;;2568427;23;19996;-73
2022/08/29 00:14:40;;;;;;;3.47;1.75;;;15.50;99.90;;;;;;2568683;23;20064;-73
2022/08/29 00:15:41;;;;;;;3.15;1.75;;;15.40;99.90;;;;;;2555307;23;20005;-73
2022/08/29 00:16:42;;;;;;;2.85;1.50;;;15.50;99.90;;;;;;2555028;23;20383;-73
2022/08/29 00:17:43;;;;;;;3.05;1.63;;;15.40;99.90;;;;;;2555196;23;20083;-73
2022/08/29 00:18:44;;;;;;;3.33;1.75;;;15.40;99.90;;;;;;2555560;23;20436;-74
2022/08/29 00:19:44;;;;;;;2.95;1.75;;;15.40;99.90;;;;;;2555389;23;20418;-73
2022/08/29 00:20:46;;;;;;;5.40;1.98;;;15.40;99.90;;;;;;2555487;23;20408;-74
2022/08/29 00:21:47;;;;;;;2.78;1.50;;;15.40;99.90;;;;;;2555482;23;20001;-73
2022/08/29 00:22:47;;;;;;;4.55;1.63;;;15.40;99.90;;;;;;2568612;23;20063;-73
2022/08/29 00:23:48;;;;;;;3.88;1.70;;;15.40;99.90;;;;;;2567062;23;20671;-73
2022/08/29 00:24:49;;;;;;;2.92;1.63;;;15.40;99.90;;;;;;2568748;23;20084;-73
2022/08/29 00:25:49;;;;;;;3.22;2.00;;;15.40;99.90;;;;;;2568302;23;20368;-73
2022/08/29 00:26:50;;;;;;;2.45;1.75;;;15.40;99.90;;;;;;2568658;23;20078;-73
2022/08/29 00:27:50;;;;;;;3.50;1.85;;;15.40;99.90;;;;;;2568641;23;20368;-74
2022/08/29 00:28:51;;;;;;;2.47;1.63;;;15.40;99.90;;;;;;2568880;23;20024;-73
2022/08/29 00:29:52;;;;;;;4.88;2.15;;;15.40;99.90;;;;;;2568829;23;20008;-73
2022/08/29 00:30:52;;;;;;;5.30;2.17;;;15.40;99.90;;;;;;2568235;23;20068;-73
2022/08/29 00:31:53;;;;;;;3.83;2.03;;;15.40;99.90;;;;;;2555191;23;20040;-73
2022/08/29 00:32:54;;;;;;;2.97;1.90;;;15.40;99.90;;;;;;2555315;23;20069;-73
2022/08/29 00:33:56;;;;;;;3.03;1.50;;;15.40;99.90;;;;;;2568543;23;20008;-74
2022/08/29 00:34:56;;;;;;;1.65;1.48;;;15.30;99.90;;;;;;2568460;23;20012;-74
2022/08/29 00:35:57;;;;;;;2.67;1.58;;;15.30;99.90;;;;;;2568459;23;20008;-73
2022/08/29 00:36:58;;;;;;;2.78;1.50;;;15.30;99.90;;;;;;2568666;23;20417;-73
2022/08/29 00:38:00;;;;;;;3.58;1.95;;;15.30;99.90;;;;;;2555458;23;20009;-73
2022/08/29 00:39:01;;;;;;;2.03;1.60;;;15.40;99.90;;;;;;2555901;23;19997;-73
2022/08/29 00:40:05;;;;;;;4.57;2.33;;;15.30;99.90;;;;;;2568826;23;20020;-73
2022/08/29 00:41:05;;;;;;;4.82;2.00;;;15.30;99.90;;;;;;2555197;23;20009;-73
2022/08/29 00:42:06;;;;;;;4.55;1.50;;;15.30;99.90;;;;;;2555450;23;20064;-73
2022/08/29 00:43:08;;;;;;;2.78;1.85;;;15.30;99.90;;;;;;2567596;23;20551;-74
2022/08/29 00:44:08;;;;;;;2.65;1.50;;;15.30;99.90;;;;;;2568757;23;20004;-73
2022/08/29 00:45:11;;;;;;;2.72;1.92;;;15.30;99.90;;;;;;2555377;23;20011;-74
2022/08/29 00:46:21;;;;;;;2.45;1.60;;;15.30;99.90;;;;;;2555437;23;20009;-73
2022/08/29 00:47:28;;;;;;;1.60;1.48;;;15.30;99.90;;;;;;2544611;23;19998;-73
2022/08/29 00:48:31;;;;;;;3.08;1.75;;;15.30;99.90;;;;;;2556811;23;20016;-73
2022/08/29 00:49:39;;;;;;;2.08;1.70;;;15.20;99.90;;;;;;2569562;23;20015;-73
2022/08/29 00:50:52;;;;;;;3.90;1.50;;;15.20;99.90;;;;;;2569898;23;20076;-73
2022/08/29 00:51:53;;;;;;;2.97;1.67;;;15.20;99.90;;;;;;2569199;23;20465;-73
2022/08/29 00:52:57;;;;;;;3.30;1.70;;;15.20;99.90;;;;;;2569440;23;20032;-73
2022/08/29 00:54:01;;;;;;;2.22;1.58;;;15.20;99.90;;;;;;2556200;23;20553;-73
2022/08/29 00:55:10;;;;;;;3.90;1.63;;;15.20;99.90;;;;;;2556864;23;20009;-73
2022/08/29 00:56:13;;;;;;;2.40;1.75;;;15.20;99.90;;;;;;2555977;23;20397;-73
2022/08/29 00:57:16;;;;;;;3.65;1.85;;;15.20;99.90;;;;;;2556682;23;20032;-74
2022/08/29 00:58:25;;;;;;;2.45;1.58;;;15.20;99.90;;;;;;2569526;23;20004;-73
2022/08/29 00:59:33;;;;;;;2.65;1.58;;;15.20;99.90;;;;;;2569369;23;20349;-73
2022/08/29 01:00:34;;;;;;;2.75;1.60;;;15.10;99.90;;;;;;2556426;23;19997;-73
2022/08/29 01:01:35;;;;;;;5.88;2.00;;;15.10;99.90;;;;;;2556508;23;20028;-73
2022/08/29 01:02:36;;;;;;;3.17;1.90;;;15.10;99.90;;;;;;2569218;23;19996;-73
2022/08/29 01:03:37;;;;;;;2.78;1.58;;;15.10;99.90;;;;;;2568988;23;20035;-73
2022/08/29 01:04:38;;;;;;;5.10;2.00;;;15.10;99.90;;;;;;2569006;23;20417;-73
2022/08/29 01:05:40;;;;;;;2.88;1.92;;;15.10;99.90;;;;;;2569382;23;20365;-73
2022/08/29 01:06:42;;;;;;;4.50;2.22;;;15.10;99.90;;;;;;2569581;23;20004;-73
2022/08/29 01:07:42;;;;;;;2.67;1.70;;;15.10;99.90;;;;;;2556114;23;20001;-73
2022/08/29 01:08:44;;;;;;;2.83;1.60;;;15.10;99.90;;;;;;2556491;23;20001;-73
2022/08/29 01:09:45;;;;;;;2.40;1.65;;;15.00;99.90;;;;;;2569346;23;20001;-73
2022/08/29 01:12:15;;;;;;;1.90;1.70;;;15.00;99.90;;;;;;2569462;23;20563;-73
2022/08/29 01:13:16;;;;;;;3.00;1.70;;;15.00;99.90;;;;;;2569182;23;20062;-73
2022/08/29 01:14:18;;;;;;;2.75;1.77;;;15.00;99.90;;;;;;2569451;23;20499;-73
2022/08/29 01:15:19;;;;;;;2.55;1.50;;;15.00;99.90;;;;;;2569199;23;20001;-73
2022/08/29 01:16:21;;;;;;;3.03;1.50;;;14.90;99.90;;;;;;2555149;23;20036;-73
2022/08/29 01:17:26;;;;;;;3.35;1.75;;;14.90;99.90;;;;;;2556333;23;20445;-73
2022/08/29 01:18:31;;;;;;;2.80;1.70;;;14.90;99.90;;;;;;2556067;23;20373;-73
2022/08/29 01:20:01;;;;;;;4.38;1.90;;;14.90;99.90;;;;;;2556919;23;20523;-73
2022/08/29 01:21:13;;;;;;;4.40;1.83;;;14.90;99.90;;;;;;2556137;23;20055;-73
2022/08/29 01:22:46;;;;;;;2.42;1.65;;;14.90;99.90;;;;;;2556340;23;20001;-73
2022/08/29 01:24:05;;;;;;;2.45;1.48;;;14.80;99.90;;;;;;2562985;23;20031;-73
2022/08/29 01:25:17;;;;;;;4.22;1.75;;;14.80;99.90;;;;;;2569292;23;20005;-73
2022/08/29 01:26:18;;;;;;;4.53;2.00;;;14.70;99.90;;;;;;2568312;23;20062;-73
2022/08/29 01:27:27;;;;;;;4.07;1.95;;;14.70;99.90;;;;;;2569230;23;20012;-73
2022/08/29 01:28:38;;;;;;;3.30;1.65;;;14.70;99.90;;;;;;2569524;23;20008;-73
2022/08/29 01:29:39;;;;;;;5.65;1.80;;;14.70;99.90;;;;;;2569262;23;20005;-73
2022/08/29 01:31:00;;;;;;;2.30;1.52;;;14.70;99.90;;;;;;2569649;23;20039;-73
2022/08/29 01:32:00;;;;;;;4.18;2.00;;;14.70;99.90;;;;;;2568974;23;20012;-73
2022/08/29 01:33:01;;;;;;;1.92;1.67;;;14.70;99.90;;;;;;2569099;23;20000;-73
2022/08/29 01:34:02;;;;;;;2.03;1.63;;;14.60;99.90;;;;;;2569232;23;20054;-73
2022/08/29 01:35:04;;;;;;;4.50;2.08;;;14.70;99.90;;;;;;2555555;23;20037;-73
2022/08/29 01:36:05;;;;;;;2.70;1.63;;;14.70;99.90;;;;;;2556394;23;20028;-73
2022/08/29 01:37:09;;;;;;;1.98;1.45;;;14.70;99.90;;;;;;2568973;23;20012;-73
2022/08/29 01:38:10;;;;;;;4.07;1.95;;;14.60;99.90;;;;;;2569269;23;19996;-73
2022/08/29 01:39:10;;;;;;;2.83;1.70;;;14.60;99.90;;;;;;2569589;23;20084;-73
2022/08/29 01:40:13;;;;;;;2.83;1.70;;;14.60;99.90;;;;;;2569438;23;20007;-73
2022/08/29 01:41:13;;;;;;;3.85;2.05;;;14.60;99.90;;;;;;2569063;23;20024;-73
2022/08/29 01:42:19;;;;;;;3.10;1.80;;;14.60;99.90;;;;;;2569222;23;20008;-73
2022/08/29 01:43:20;;;;;;;2.65;1.75;;;14.60;99.90;;;;;;2568852;23;20028;-73
2022/08/29 01:44:24;;;;;;;4.70;1.80;;;14.60;99.90;;;;;;2569549;23;20005;-73
2022/08/29 01:45:24;;;;;;;3.80;1.60;;;14.60;99.90;;;;;;2569438;23;20000;-73
2022/08/29 01:46:30;;;;;;;4.75;1.85;;;14.60;99.90;;;;;;2568742;23;20472;-73
2022/08/29 01:47:36;;;;;;;1.85;1.30;;;14.50;99.90;;;;;;2569324;23;20004;-74
2022/08/29 01:48:39;;;;;;;2.10;1.50;;;14.50;99.90;;;;;;2569170;23;20664;-73
2022/08/29 01:49:39;;;;;;;4.18;1.70;;;14.50;99.90;;;;;;2569046;23;20005;-73
2022/08/29 01:50:40;;;;;;;3.03;1.80;;;14.50;99.90;;;;;;2569464;23;20024;-73
2022/08/29 01:51:41;;;;;;;4.22;1.98;;;14.50;99.90;;;;;;2555996;23;20439;-73
2022/08/29 01:52:42;;;;;;;4.30;1.88;;;14.50;99.90;;;;;;2555892;23;20393;-73
2022/08/29 01:53:43;;;;;;;2.88;1.77;;;14.50;99.90;;;;;;2555804;23;20036;-73
2022/08/29 01:54:45;;;;;;;2.35;1.75;;;14.40;99.90;;;;;;2555731;23;20002;-73
2022/08/29 01:55:46;;;;;;;3.97;1.77;;;14.40;99.90;;;;;;2555514;23;20017;-73
2022/08/29 01:56:50;;;;;;;6.28;2.20;;;14.40;99.90;;;;;;2557142;23;20000;-73
2022/08/29 01:57:51;;;;;;;3.10;1.60;;;14.40;99.90;;;;;;2555524;23;20001;-73
2022/08/29 01:58:53;;;;;;;3.13;2.03;;;14.40;99.90;;;;;;2556101;23;20035;-73
2022/08/29 01:59:54;;;;;;;3.58;1.90;;;14.40;99.90;;;;;;2557021;23;20005;-73
2022/08/29 02:00:55;;;;;;;2.35;1.73;;;14.30;99.90;;;;;;2556636;23;20002;-73
2022/08/29 02:02:05;;;;;;;5.30;2.00;;;14.40;99.90;;;;;;2556801;23;20785;-73
2022/08/29 02:03:06;;;;;;;2.08;1.77;;;14.30;99.90;;;;;;2555525;23;20036;-73
2022/08/29 02:04:07;;;;;;;2.78;1.83;;;14.30;99.90;;;;;;2555924;23;19993;-73
2022/08/29 02:05:09;;;;;;;2.65;1.75;;;14.30;99.90;;;;;;2556570;23;20036;-73
2022/08/29 02:06:09;;;;;;;5.32;2.30;;;14.30;99.90;;;;;;2555563;23;20430;-73
2022/08/29 02:07:10;;;;;;;2.88;1.80;;;14.30;99.90;;;;;;2555896;23;20397;-73
2022/08/29 02:08:10;;;;;;;3.08;1.63;;;14.30;99.90;;;;;;2556163;23;20035;-73
2022/08/29 02:09:11;;;;;;;2.38;1.50;;;14.30;99.90;;;;;;2556503;23;20001;-73
2022/08/29 02:10:11;;;;;;;4.22;1.63;;;14.30;99.90;;;;;;2556573;23;20075;-73
2022/08/29 02:11:14;;;;;;;2.60;2.00;;;14.20;99.90;;;;;;2556917;23;20005;-73
2022/08/29 02:12:16;;;;;;;1.90;1.58;;;14.20;99.90;;;;;;2556018;23;20005;-73
2022/08/29 02:13:16;;;;;;;2.17;1.60;;;14.20;99.90;;;;;;2555710;23;20009;-73
2022/08/29 02:14:17;;;;;;;6.25;1.90;;;14.20;99.90;;;;;;2556778;23;20005;-73
2022/08/29 02:15:18;;;;;;;5.50;2.30;;;14.20;99.90;;;;;;2556099;23;20110;-73
2022/08/29 02:16:20;;;;;;;5.38;1.70;;;14.20;99.90;;;;;;2555060;23;20001;-73
2022/08/29 02:17:21;;;;;;;2.88;1.85;;;14.20;99.90;;;;;;2555991;23;20001;-73
2022/08/29 02:18:22;;;;;;;3.90;1.92;;;14.10;99.90;;;;;;2556332;23;20012;-73
2022/08/29 02:19:22;;;;;;;1.92;1.80;;;14.10;99.90;;;;;;2557155;23;20001;-73
2022/08/29 02:20:23;;;;;;;2.30;1.85;;;14.10;99.90;;;;;;2556646;23;20148;-73
2022/08/29 02:21:26;;;;;;;5.18;2.22;;;14.10;99.90;;;;;;2555698;23;20005;-74
2022/08/29 02:22:26;;;;;;;3.00;1.88;;;14.10;99.90;;;;;;2555979;23;20009;-73
2022/08/29 02:23:27;;;;;;;3.95;1.90;;;14.10;99.90;;;;;;2556787;23;20033;-73
2022/08/29 02:24:29;;;;;;;4.82;2.20;;;14.10;99.90;;;;;;2556414;23;20001;-73
2022/08/29 02:25:41;;;;;;;3.17;1.95;;;14.00;99.90;;;;;;2556650;23;20011;-73
2022/08/29 02:26:43;;;;;;;4.10;2.20;;;14.00;99.90;;;;;;2556954;23;20342;-73
2022/08/29 02:27:44;;;;;;;3.10;2.08;;;14.00;99.90;;;;;;2556485;23;20024;-73
2022/08/29 02:28:45;;;;;;;2.95;2.00;;;14.00;99.90;;;;;;2556712;23;20433;-73
2022/08/29 02:29:46;;;;;;;2.30;1.83;;;14.00;99.90;;;;;;2555964;23;20005;-73
2022/08/29 02:30:51;;;;;;;3.45;2.20;;;14.00;99.90;;;;;;2555959;23;20471;-73
2022/08/29 02:31:52;;;;;;;4.70;2.03;;;14.00;99.90;;;;;;2556536;23;20001;-73
2022/08/29 02:32:53;;;;;;;2.05;1.85;;;14.00;99.90;;;;;;2556657;23;20009;-73
2022/08/29 02:33:53;;;;;;;2.70;1.63;;;13.90;99.90;;;;;;2556235;23;20495;-73
2022/08/29 02:34:54;;;;;;;4.90;2.13;;;13.90;99.90;;;;;;2556434;23;20036;-73
2022/08/29 02:35:55;;;;;;;4.05;2.08;;;13.90;99.90;;;;;;2556711;23;20009;-73
2022/08/29 02:36:58;;;;;;;3.95;1.85;;;13.90;99.90;;;;;;2555503;23;20078;-73
2022/08/29 02:37:58;;;;;;;2.75;1.50;;;13.90;99.90;;;;;;2555437;23;19997;-73
2022/08/29 02:38:59;;;;;;;3.65;1.85;;;13.90;99.90;;;;;;2556782;23;20128;-73
2022/08/29 02:39:59;;;;;;;3.10;1.85;;;13.90;99.90;;;;;;2556545;23;20009;-73
2022/08/29 02:41:01;;;;;;;5.80;2.00;;;13.90;99.90;;;;;;2554618;23;20012;-73
2022/08/29 02:42:02;;;;;;;2.53;1.73;;;13.90;99.90;;;;;;2555829;23;20361;-73
2022/08/29 02:43:04;;;;;;;4.45;1.90;;;13.80;99.90;;;;;;2556109;23;20314;-73
2022/08/29 02:44:06;;;;;;;2.65;1.63;;;13.90;99.90;;;;;;2556815;23;20029;-73
2022/08/29 02:45:07;;;;;;;2.75;1.85;;;13.80;99.90;;;;;;2556737;23;20514;-73
2022/08/29 02:46:13;;;;;;;3.25;1.83;;;13.80;99.90;;;;;;2555498;23;20109;-73
2022/08/29 02:47:13;;;;;;;4.40;2.00;;;13.80;99.90;;;;;;2555806;23;20337;-73
2022/08/29 02:48:15;;;;;;;4.55;2.38;;;13.80;99.90;;;;;;2555466;23;20020;-73
2022/08/29 02:49:16;;;;;;;3.60;2.17;;;13.80;99.90;;;;;;2555800;23;20008;-73
2022/08/29 02:50:17;;;;;;;2.28;1.58;;;13.80;99.90;;;;;;2555692;23;20588;-73
2022/08/29 02:51:27;;;;;;;2.53;1.83;;;13.80;99.90;;;;;;2556772;23;20421;-73
2022/08/29 02:52:27;;;;;;;1.77;1.67;;;13.80;99.90;;;;;;2568076;23;20013;-73
2022/08/29 02:53:29;;;;;;;3.30;2.00;;;13.80;99.90;;;;;;2568298;23;20012;-73
2022/08/29 02:54:30;;;;;;;2.70;2.10;;;13.80;99.90;;;;;;2568882;23;20009;-74
2022/08/29 02:55:31;;;;;;;3.17;1.90;;;13.70;99.90;;;;;;2568908;23;20007;-73
2022/08/29 02:56:31;;;;;;;2.63;1.70;;;13.70;99.90;;;;;;2555500;23;20501;-73
2022/08/29 02:57:32;;;;;;;3.65;2.30;;;13.80;99.90;;;;;;2555832;23;19993;-73
2022/08/29 02:58:33;;;;;;;2.30;2.05;;;13.70;99.90;;;;;;2568777;23;20454;-73
2022/08/29 02:59:33;;;;;;;4.25;2.10;;;13.70;99.90;;;;;;2569393;23;20032;-74
2022/08/29 03:00:35;;;;;;;2.83;2.10;;;13.70;99.90;;;;;;2568998;23;20563;-74
2022/08/29 03:01:37;;;;;;;3.92;2.15;;;13.70;99.90;;;;;;2569243;23;20369;-73
2022/08/29 03:02:38;;;;;;;2.50;1.90;;;13.70;99.90;;;;;;2555456;23;20001;-73
2022/08/29 03:03:39;;;;;;;3.00;1.98;;;13.70;99.90;;;;;;2555416;23;20521;-73
2022/08/29 03:04:39;;;;;;;4.78;2.25;;;13.70;99.90;;;;;;2555768;23;20005;-73
2022/08/29 03:05:40;;;;;;;2.30;1.83;;;13.70;99.90;;;;;;2555296;23;20001;-74
2022/08/29 03:06:41;;;;;;;3.28;1.83;;;13.70;99.90;;;;;;2569230;23;20000;-73
2022/08/29 03:07:42;;;;;;;3.55;1.77;;;13.70;99.90;;;;;;2569193;23;20359;-73
2022/08/29 03:08:43;;;;;;;4.40;2.40;;;13.70;99.90;;;;;;2555418;23;20329;-73
2022/08/29 03:09:43;;;;;;;3.38;2.10;;;13.70;99.90;;;;;;2555725;23;20029;-73
2022/08/29 03:10:44;;;;;;;3.28;2.05;;;13.70;99.90;;;;;;2555659;23;20029;-73
2022/08/29 03:11:44;;;;;;;2.70;2.00;;;13.70;99.90;;;;;;2568732;23;19997;-73
2022/08/29 03:12:46;;;;;;;4.82;1.88;;;13.60;99.90;;;;;;2569210;23;20012;-73
2022/08/29 03:13:47;;;;;;;3.05;2.10;;;13.60;99.90;;;;;;2568475;23;20000;-73
2022/08/29 03:14:47;;;;;;;3.05;1.98;;;13.60;99.90;;;;;;2555451;23;20496;-73
2022/08/29 03:15:48;;;;;;;4.40;2.15;;;13.60;99.90;;;;;;2555183;23;20005;-73
2022/08/29 03:16:49;;;;;;;4.28;1.88;;;13.60;99.90;;;;;;2555554;23;20004;-73
2022/08/29 03:17:49;;;;;;;2.92;1.70;;;13.60;99.90;;;;;;2568993;23;20071;-73
2022/08/29 03:18:50;;;;;;;2.10;1.67;;;13.60;99.90;;;;;;2569008;23;20051;-73
2022/08/29 03:19:50;;;;;;;3.97;2.20;;;13.60;99.90;;;;;;2568824;23;20032;-73
2022/08/29 03:20:52;;;;;;;3.22;1.83;;;13.60;99.90;;;;;;2568646;23;20080;-73
2022/08/29 03:21:52;;;;;;;6.05;2.20;;;13.60;99.90;;;;;;2569298;23;20016;-73
2022/08/29 03:22:54;;;;;;;2.85;2.10;;;13.60;99.90;;;;;;2568762;23;20031;-73
2022/08/29 03:23:55;;;;;;;3.92;2.40;;;13.60;99.90;;;;;;2568138;23;20008;-73
2022/08/29 03:24:55;;;;;;;5.05;2.25;;;13.60;99.90;;;;;;2569084;23;20063;-73
2022/08/29 03:25:56;;;;;;;2.92;2.05;;;13.60;99.90;;;;;;2568436;23;20015;-73
2022/08/29 03:26:57;;;;;;;4.32;2.28;;;13.50;99.90;;;;;;2569032;23;20009;-73
2022/08/29 03:27:58;;;;;;;3.58;2.22;;;13.60;99.90;;;;;;2568938;23;20016;-73
2022/08/29 03:28:59;;;;;;;4.93;1.95;;;13.60;99.90;;;;;;2568715;23;20015;-73
2022/08/29 03:29:59;;;;;;;3.15;2.17;;;13.50;99.90;;;;;;2569123;23;20008;-73
2022/08/29 03:31:00;;;;;;;3.63;2.28;;;13.50;99.90;;;;;;2568956;23;20455;-73
2022/08/29 03:32:01;;;;;;;5.55;2.28;;;13.50;99.90;;;;;;2568612;23;20080;-73
2022/08/29 03:33:03;;;;;;;4.03;1.80;;;13.50;99.90;;;;;;2568559;23;20012;-73
2022/08/29 03:34:03;;;;;;;6.97;2.10;;;13.50;99.90;;;;;;2568613;23;20019;-73
2022/08/29 03:35:06;;;;;;;4.32;2.00;;;13.50;99.90;;;;;;2568459;23;20040;-73
2022/08/29 03:36:08;;;;;;;3.35;1.90;;;13.50;99.90;;;;;;2568695;23;20028;-73
2022/08/29 03:37:09;;;;;;;3.35;2.33;;;13.50;99.90;;;;;;2568933;23;20000;-73
2022/08/29 03:38:10;;;;;;;2.80;2.30;;;13.50;99.90;;;;;;2555002;23;20028;-74
2022/08/29 03:39:10;;;;;;;3.03;1.83;;;13.50;99.90;;;;;;2555931;23;20056;-73
2022/08/29 03:40:12;;;;;;;2.33;1.80;;;13.50;99.90;;;;;;2569010;23;20042;-73
2022/08/29 03:41:27;;;;;;;4.95;2.40;;;13.50;99.90;;;;;;2568845;23;20439;-73
2022/08/29 03:42:29;;;;;;;4.32;2.10;;;13.50;99.90;;;;;;2568991;23;20031;-73
2022/08/29 03:43:29;;;;;;;2.47;1.98;;;13.50;99.90;;;;;;2568453;23;20001;-73
2022/08/29 03:44:38;;;;;;;2.05;1.63;;;13.50;99.90;;;;;;2568675;23;20000;-73
2022/08/29 03:45:39;;;;;;;3.35;1.77;;;13.50;99.90;;;;;;2568769;23;20001;-73
2022/08/29 03:46:39;;;;;;;4.18;2.10;;;13.50;99.90;;;;;;2569101;23;19996;-73
2022/08/29 03:47:41;;;;;;;2.15;2.03;;;13.50;99.90;;;;;;2568878;23;20024;-73
2022/08/29 03:48:41;;;;;;;2.75;1.95;;;13.40;99.90;;;;;;2554757;23;19997;-73
2022/08/29 03:49:42;;;;;;;3.58;1.92;;;13.50;99.90;;;;;;2555639;23;19997;-73
2022/08/29 03:50:42;;;;;;;3.78;2.33;;;13.50;99.90;;;;;;2568609;23;20024;-73
2022/08/29 03:51:43;;;;;;;3.55;2.47;;;13.40;99.90;;;;;;2555221;23;19993;-73
2022/08/29 03:52:44;;;;;;;3.70;2.13;;;13.50;99.90;;;;;;2555985;23;20009;-73
2022/08/29 03:53:44;;;;;;;6.13;2.20;;;13.40;99.90;;;;;;2555054;23;19997;-73
2022/08/29 03:54:45;;;;;;;2.08;1.70;;;13.40;99.90;;;;;;2555426;23;20001;-73
2022/08/29 03:55:46;;;;;;;3.70;2.20;;;13.40;99.90;;;;;;2555929;23;20076;-73
2022/08/29 03:56:46;;;;;;;3.10;1.83;;;13.40;99.90;;;;;;2556617;23;20007;-73
2022/08/29 03:57:47;;;;;;;4.05;2.35;;;13.40;99.90;;;;;;2556199;23;20773;-73
2022/08/29 03:58:49;;;;;;;3.63;1.80;;;13.40;99.90;;;;;;2556197;23;20005;-73
2022/08/29 03:59:49;;;;;;;3.35;1.92;;;13.40;99.90;;;;;;2555966;23;19997;-74
2022/08/29 04:00:50;;;;;;;3.03;2.22;;;13.40;99.90;;;;;;2556477;23;20528;-73
2022/08/29 04:01:51;;;;;;;3.55;2.00;;;13.40;99.90;;;;;;2555458;23;20005;-73
2022/08/29 04:02:54;;;;;;;3.10;1.75;;;13.40;99.90;;;;;;2555246;23;20008;-73
2022/08/29 04:03:56;;;;;;;3.30;2.00;;;13.40;99.90;;;;;;2555505;23;20633;-73
2022/08/29 04:05:08;;;;;;;4.10;2.03;;;13.40;99.90;;;;;;2555136;23;20001;-73
2022/08/29 04:06:09;;;;;;;4.55;1.80;;;13.40;99.90;;;;;;2555523;23;20291;-74
2022/08/29 04:07:13;;;;;;;2.20;1.80;;;13.40;99.90;;;;;;2556409;23;20020;-73
2022/08/29 04:08:14;;;;;;;2.42;1.77;;;13.40;99.90;;;;;;2556008;23;20032;-73
2022/08/29 04:09:14;;;;;;;3.33;1.83;;;13.40;99.90;;;;;;2556655;23;20426;-73
2022/08/29 04:10:20;;;;;;;3.20;2.20;;;13.40;99.90;;;;;;2555423;23;20009;-73
2022/08/29 04:11:22;;;;;;;3.60;2.30;;;13.40;99.90;;;;;;2555243;23;20483;-73
2022/08/29 04:12:23;;;;;;;3.55;1.88;;;13.40;99.90;;;;;;2556480;23;20012;-73
2022/08/29 04:13:24;;;;;;;4.72;2.00;;;13.40;99.90;;;;;;2556118;23;20449;-73
2022/08/29 04:14:25;;;;;;;4.50;2.13;;;13.40;99.90;;;;;;2556466;23;20028;-73
2022/08/29 04:15:27;;;;;;;4.93;1.92;;;13.40;99.90;;;;;;2556228;23;20471;-73
2022/08/29 04:16:28;;;;;;;4.22;2.08;;;13.40;99.90;;;;;;2555476;23;20009;-73
2022/08/29 04:17:28;;;;;;;3.10;2.33;;;13.40;99.90;;;;;;2556325;23;20072;-73
2022/08/29 04:18:29;;;;;;;4.07;2.08;;;13.40;99.90;;;;;;2556280;23;20015;-73
2022/08/29 04:19:30;;;;;;;2.63;2.20;;;13.40;99.90;;;;;;2556233;23;20001;-73
2022/08/29 04:20:34;;;;;;;5.47;2.45;;;13.40;99.90;;;;;;2555295;23;20009;-73
2022/08/29 04:21:35;;;;;;;4.30;2.28;;;13.40;99.90;;;;;;2555419;23;20076;-73
2022/08/29 04:22:38;;;;;;;4.00;2.33;;;13.40;99.90;;;;;;2555460;23;20005;-73
2022/08/29 04:23:39;;;;;;;3.22;2.40;;;13.40;99.90;;;;;;2555171;23;20369;-74
2022/08/29 04:24:40;;;;;;;5.97;2.50;;;13.40;99.90;;;;;;2555928;23;20066;-73
2022/08/29 04:25:42;;;;;;;3.72;2.40;;;13.40;99.90;;;;;;2555854;23;20759;-73
2022/08/29 04:26:43;;;;;;;4.78;1.98;;;13.40;99.90;;;;;;2556298;23;19998;-73
2022/08/29 04:27:43;;;;;;;3.13;2.20;;;13.30;99.90;;;;;;2556493;23;20012;-73
2022/08/29 04:28:45;;;;;;;4.95;2.28;;;13.30;99.90;;;;;;2556345;23;19997;-73
2022/08/29 04:29:47;;;;;;;2.67;1.90;;;13.30;99.90;;;;;;2555535;23;19998;-73
2022/08/29 04:30:50;;;;;;;2.47;2.03;;;13.30;99.90;;;;;;2555595;23;19998;-73
2022/08/29 04:31:51;;;;;;;3.15;2.22;;;13.30;99.90;;;;;;2556235;23;20035;-73
2022/08/29 04:32:51;;;;;;;3.38;2.03;;;13.30;99.90;;;;;;2555433;23;20005;-73
2022/08/29 04:33:52;;;;;;;3.05;2.25;;;13.30;99.90;;;;;;2555056;23;20637;-73
2022/08/29 04:34:57;;;;;;;4.75;2.30;;;13.30;99.90;;;;;;2555497;23;20406;-73
2022/08/29 04:35:57;;;;;;;3.75;2.05;;;13.30;99.90;;;;;;2555389;23;20088;-73
2022/08/29 04:36:58;;;;;;;4.30;1.90;;;13.30;99.90;;;;;;2555202;23;20001;-73
2022/08/29 04:37:59;;;;;;;3.15;1.95;;;13.30;99.90;;;;;;2555501;23;20008;-73
2022/08/29 04:38:59;;;;;;;5.13;2.47;;;13.40;99.90;;;;;;2555559;23;20002;-73
2022/08/29 04:40:00;;;;;;;3.17;2.22;;;13.30;99.90;;;;;;2555618;23;20001;-73
2022/08/29 04:41:05;;;;;;;3.00;2.30;;;13.30;99.90;;;;;;2555783;23;20009;-74
2022/08/29 04:42:06;;;;;;;2.78;2.13;;;13.40;99.90;;;;;;2556458;23;20077;-73
2022/08/29 04:43:08;;;;;;;5.25;2.65;;;13.40;99.90;;;;;;2555527;23;20329;-73
2022/08/29 04:44:11;;;;;;;3.30;2.22;;;13.40;99.90;;;;;;2556513;23;20005;-73
2022/08/29 04:45:13;;;;;;;3.05;2.05;;;13.40;99.90;;;;;;2556541;23;20072;-73
2022/08/29 04:46:15;;;;;;;6.10;3.00;;;13.40;99.90;;;;;;2556093;23;20036;-73
2022/08/29 04:47:15;;;;;;;4.75;2.13;;;13.40;99.90;;;;;;2555921;23;20020;-73
2022/08/29 04:48:17;;;;;;;2.38;2.00;;;13.40;99.90;;;;;;2556146;23;20008;-73
2022/08/29 04:49:17;;;;;;;5.35;2.17;;;13.40;99.90;;;;;;2556600;23;20012;-73
2022/08/29 04:50:21;;;;;;;3.30;2.17;;;13.40;99.90;;;;;;2554792;23;20012;-73
2022/08/29 04:51:22;;;;;;;3.25;2.00;;;13.40;99.90;;;;;;2555798;23;20430;-73
2022/08/29 04:52:22;;;;;;;3.15;1.80;;;13.40;99.90;;;;;;2566791;23;20441;-73
2022/08/29 04:53:25;;;;;;;2.10;1.70;;;13.40;99.90;;;;;;2567141;23;20009;-73
2022/08/29 04:54:25;;;;;;;4.03;2.40;;;13.40;99.90;;;;;;2568289;23;20015;-73
2022/08/29 04:55:26;;;;;;;4.20;2.10;;;13.40;99.90;;;;;;2568578;23;20020;-73
2022/08/29 04:56:27;;;;;;;5.63;2.67;;;13.40;99.90;;;;;;2568232;23;20005;-73
2022/08/29 04:57:27;;;;;;;5.43;2.20;;;13.40;99.90;;;;;;2568662;23;20079;-73
2022/08/29 04:58:29;;;;;;;5.57;2.75;;;13.40;99.90;;;;;;2554962;23;20393;-73
2022/08/29 04:59:29;;;;;;;4.72;2.67;;;13.40;99.90;;;;;;2555587;23;20078;-73
2022/08/29 05:00:30;;;;;;;4.03;2.13;;;13.40;99.90;;;;;;2555331;23;20009;-73
2022/08/29 05:01:30;;;;;;;3.13;2.40;;;13.40;99.90;;;;;;2554622;23;20001;-73
2022/08/29 05:02:31;;;;;;;5.30;2.70;;;13.40;99.90;;;;;;2555478;23;20437;-73
2022/08/29 05:03:33;;;;;;;5.20;2.30;;;13.40;99.90;;;;;;2555248;23;20421;-74
2022/08/29 05:04:33;;;;;;;3.95;2.25;;;13.40;99.90;;;;;;2568777;23;19997;-73
2022/08/29 05:05:34;;;;;;;4.20;2.50;;;13.40;99.90;;;;;;2568525;23;20027;-73
2022/08/29 05:06:34;;;;;;;4.88;2.80;;;13.40;99.90;;;;;;2568373;23;20004;-73
2022/08/29 05:07:35;;;;;;;2.33;2.08;;;13.40;99.90;;;;;;2568745;23;20451;-73
2022/08/29 05:08:37;;;;;;;6.40;2.40;;;13.50;99.90;;;;;;2568551;23;20096;-73
2022/08/29 05:09:38;;;;;;;4.95;2.80;;;13.40;99.90;;;;;;2568317;23;20420;-73
2022/08/29 05:10:38;;;;;;;3.58;2.25;;;13.50;99.90;;;;;;2555172;23;20389;-73
2022/08/29 05:11:40;;;;;;;4.72;2.40;;;13.50;99.90;;;;;;2555397;23;20096;-73
2022/08/29 05:12:40;;;;;;;3.95;2.67;;;13.50;99.90;;;;;;2568521;23;20076;-73
2022/08/29 05:13:42;;;;;;;3.50;2.25;;;13.50;99.90;;;;;;2568642;23;20417;-73
2022/08/29 05:14:43;;;;;;;4.82;2.22;;;13.50;99.90;;;;;;2568450;23;20009;-73
2022/08/29 05:15:44;;;;;;;4.00;2.22;;;13.50;99.90;;;;;;2568576;23;20004;-73
2022/08/29 05:16:45;;;;;;;3.28;2.35;;;13.50;99.90;;;;;;2568200;23;19997;-73
2022/08/29 05:17:46;;;;;;;6.20;2.35;;;13.50;99.90;;;;;;2568182;23;20001;-73
2022/08/29 05:18:47;;;;;;;3.00;2.47;;;13.60;99.90;;;;;;2568734;23;20099;-73
2022/08/29 05:19:48;;;;;;;3.17;2.30;;;13.60;99.90;;;;;;2555003;23;20001;-73
2022/08/29 05:20:48;;;;;;;3.38;2.63;;;13.60;99.90;;;;;;2555122;23;20028;-76
2022/08/29 05:21:55;;;;;;;3.33;2.33;;;13.60;99.90;;;;;;2568762;23;20004;-76
2022/08/29 05:22:56;;;;;;;3.85;2.28;;;13.60;99.90;;;;;;2555382;23;20005;-76
2022/08/29 05:23:57;;;;;;;4.43;2.67;;;13.60;99.90;;;;;;2555079;23;20484;-76
2022/08/29 05:24:58;;;;;;;5.22;2.30;;;13.60;99.90;;;;;;2555403;23;20004;-76